Lloret de Mar, Spain
Current Conditions -  °F | °C
As of 1:30 PM on Thursday 29 Jan 2015 (Local Time) from LEGE Reporting Station
Few Clouds Few Clouds  
Wind Chill: 55°   Ceiling: Unl
Heat Index: 55°   Visibility: 6mi
Dew Point: 39°   Wind: 5mph
Humidity: 54%   Direction: 350°N
Pressure: 29.65"   Gusts: NA
Location:  41.7°N, 2.85°E
Report Text: LEGE 291230Z 35004KT 260V070 9999 FEW030 13/04 Q1004
Loading
Personal Weather Stations






























Interactive Weather Map New forecast layout! Learn more

10-Day Weather Forecast

Advertisements
Track Severe Weather on mobile